createdAt,value
2022-09-20T00:00:08.058Z,9.26
2022-09-20T00:03:01.221Z,9.27
2022-09-20T00:05:55.268Z,9.29
2022-09-20T00:08:40.488Z,9.31
2022-09-20T00:11:24.630Z,9.33
2022-09-20T00:14:14.046Z,9.35
2022-09-20T00:16:45.330Z,9.38
2022-09-20T00:19:36.421Z,9.38
2022-09-20T00:22:15.982Z,9.39
2022-09-20T00:25:20.135Z,9.39
2022-09-20T00:28:16.353Z,9.36
2022-09-20T00:30:50.020Z,9.36
2022-09-20T00:33:45.316Z,9.37
2022-09-20T00:36:19.378Z,9.37
2022-09-20T00:39:04.149Z,9.38
2022-09-20T00:41:41.361Z,9.38
2022-09-20T00:45:03.781Z,9.39
2022-09-20T00:48:04.490Z,9.39
2022-09-20T00:51:07.820Z,9.40
2022-09-20T00:54:02.838Z,9.41
2022-09-20T00:56:46.776Z,9.40
2022-09-20T00:59:50.087Z,9.42
2022-09-20T01:02:32.017Z,9.44
2022-09-20T01:05:23.597Z,9.44
2022-09-20T01:07:56.471Z,9.44
2022-09-20T01:10:46.211Z,9.44
2022-09-20T01:13:27.233Z,9.43
2022-09-20T01:16:06.497Z,9.41
2022-09-20T01:18:55.459Z,9.39
2022-09-20T01:21:36.985Z,9.36
2022-09-20T01:24:42.738Z,9.33
2022-09-20T01:27:43.740Z,9.29
2022-09-20T01:30:34.235Z,9.26
2022-09-20T01:33:33.354Z,9.23
2022-09-20T01:36:05.311Z,9.21
2022-09-20T01:38:54.597Z,9.19
2022-09-20T01:42:18.799Z,9.18
2022-09-20T01:45:41.567Z,9.19
2022-09-20T01:48:39.315Z,9.19
2022-09-20T01:51:59.538Z,9.19
2022-09-20T01:54:46.311Z,9.19
2022-09-20T01:57:31.686Z,9.19
2022-09-20T02:00:22.828Z,9.18
2022-09-20T02:03:26.913Z,9.19
2022-09-20T02:06:16.835Z,9.19
2022-09-20T02:09:25.833Z,9.18
2022-09-20T02:12:57.697Z,9.17
2022-09-20T02:15:49.411Z,9.16
2022-09-20T02:18:59.872Z,9.14
2022-09-20T02:21:54.370Z,9.13
2022-09-20T02:24:53.308Z,9.12
2022-09-20T02:27:30.677Z,9.10
2022-09-20T02:30:55.147Z,9.10
2022-09-20T02:33:52.020Z,9.08
2022-09-20T02:37:48.226Z,9.08
2022-09-20T02:41:32.059Z,9.06
2022-09-20T02:44:48.681Z,9.06
2022-09-20T02:47:40.107Z,9.04
2022-09-20T02:51:05.582Z,9.00
2022-09-20T02:54:32.252Z,9.00
2022-09-20T02:57:42.692Z,8.99
2022-09-20T03:00:53.928Z,8.97
2022-09-20T03:04:06.915Z,8.93
2022-09-20T03:07:11.499Z,8.89
2022-09-20T03:10:54.871Z,8.83
2022-09-20T03:14:24.427Z,8.79
2022-09-20T03:17:02.868Z,8.79
2022-09-20T03:20:14.435Z,8.80
2022-09-20T03:23:50.232Z,8.81
2022-09-20T03:27:24.627Z,8.82
2022-09-20T03:30:20.171Z,8.88
2022-09-20T03:33:04.063Z,8.92
2022-09-20T03:36:19.941Z,8.96
2022-09-20T03:39:13.802Z,8.99
2022-09-20T03:42:30.904Z,9.01
2022-09-20T03:45:08.772Z,9.05
2022-09-20T03:47:59.539Z,9.07
2022-09-20T03:51:25.207Z,9.10
2022-09-20T03:54:19.233Z,9.11
2022-09-20T03:57:29.260Z,8.96
2022-09-20T04:00:24.595Z,8.80
2022-09-20T04:03:22.199Z,8.71
2022-09-20T04:06:44.038Z,8.64
2022-09-20T04:10:16.749Z,8.56
2022-09-20T04:13:16.829Z,8.53
2022-09-20T04:16:47.395Z,8.51
2022-09-20T04:19:36.066Z,8.49
2022-09-20T04:22:07.943Z,8.49
2022-09-20T04:25:04.212Z,8.49
2022-09-20T04:28:07.375Z,8.50
2022-09-20T04:30:46.618Z,8.51
2022-09-20T04:33:31.194Z,8.53
2022-09-20T04:37:00.640Z,8.54
2022-09-20T04:40:02.407Z,8.55
2022-09-20T04:42:48.806Z,8.55
2022-09-20T04:45:54.876Z,8.57
2022-09-20T04:48:52.190Z,8.58
2022-09-20T04:52:11.032Z,8.58
2022-09-20T04:55:04.119Z,8.60
2022-09-20T04:58:01.831Z,8.62
2022-09-20T05:00:58.475Z,8.64
2022-09-20T05:04:06.292Z,8.68
2022-09-20T05:06:50.730Z,8.74
2022-09-20T05:09:42.806Z,8.79
2022-09-20T05:12:51.374Z,8.83
2022-09-20T05:15:40.684Z,8.85
2022-09-20T05:18:45.192Z,8.88
2022-09-20T05:21:42.013Z,8.89
2022-09-20T05:24:40.828Z,8.90
2022-09-20T05:27:19.899Z,8.93
2022-09-20T05:30:07.865Z,8.97
2022-09-20T05:33:19.179Z,9.00
2022-09-20T05:36:18.919Z,9.03
2022-09-20T05:39:08.002Z,9.08
2022-09-20T05:42:15.546Z,9.13
2022-09-20T05:45:03.211Z,9.18
2022-09-20T05:48:06.307Z,9.24
2022-09-20T05:51:06.488Z,9.27
2022-09-20T05:54:02.318Z,9.29
2022-09-20T05:56:50.547Z,9.31
2022-09-20T05:59:40.501Z,9.36
2022-09-20T06:03:01.172Z,9.44
2022-09-20T06:06:13.654Z,9.56
2022-09-20T06:09:04.569Z,9.69
2022-09-20T06:12:06.771Z,9.81
2022-09-20T06:15:02.123Z,9.92
2022-09-20T06:17:44.106Z,10.00
2022-09-20T06:20:27.029Z,10.07
2022-09-20T06:22:58.376Z,10.13
2022-09-20T06:25:37.815Z,10.20
2022-09-20T06:28:21.417Z,10.23
2022-09-20T06:30:53.257Z,10.29
2022-09-20T06:33:27.008Z,10.36
2022-09-20T06:36:59.158Z,10.46
2022-09-20T06:39:54.532Z,10.53
2022-09-20T06:42:30.723Z,10.55
2022-09-20T06:45:04.699Z,10.56
2022-09-20T06:47:40.318Z,10.53
2022-09-20T06:50:19.533Z,10.53
2022-09-20T06:52:47.667Z,10.52
2022-09-20T06:55:31.081Z,10.53
2022-09-20T06:57:59.405Z,10.56
2022-09-20T07:00:28.430Z,10.59
2022-09-20T07:02:57.373Z,10.61
2022-09-20T07:05:27.265Z,10.65
2022-09-20T07:07:59.284Z,10.69
2022-09-20T07:10:28.990Z,10.75
2022-09-20T07:13:02.195Z,10.80
2022-09-20T07:15:33.369Z,10.82
2022-09-20T07:18:02.086Z,10.82
2022-09-20T07:20:30.239Z,10.82
2022-09-20T07:22:58.758Z,10.88
2022-09-20T07:25:27.047Z,10.92
2022-09-20T07:28:20.885Z,10.93
2022-09-20T07:30:51.102Z,10.94
2022-09-20T07:33:21.782Z,10.92
2022-09-20T07:35:49.805Z,10.94
2022-09-20T07:38:17.986Z,11.02
2022-09-20T07:41:02.070Z,11.10
2022-09-20T07:43:33.000Z,11.20
2022-09-20T07:46:00.892Z,11.31
2022-09-20T07:48:37.055Z,11.41
2022-09-20T07:51:13.577Z,11.59
2022-09-20T07:53:42.639Z,11.80
2022-09-20T07:56:14.473Z,11.94
2022-09-20T07:58:50.007Z,12.06
2022-09-20T08:01:22.777Z,12.10
2022-09-20T08:03:52.139Z,12.11
2022-09-20T08:06:21.458Z,12.14
2022-09-20T08:08:52.288Z,12.14
2022-09-20T08:11:31.799Z,12.22
2022-09-20T08:14:20.906Z,12.26
2022-09-20T08:16:52.235Z,12.24
2022-09-20T08:19:23.140Z,12.17
2022-09-20T08:22:01.311Z,12.15
2022-09-20T08:24:29.266Z,12.15
2022-09-20T08:26:59.194Z,12.21
2022-09-20T08:29:32.053Z,12.25
2022-09-20T08:32:01.634Z,12.27
2022-09-20T08:34:34.183Z,12.34
2022-09-20T08:37:17.636Z,12.39
2022-09-20T08:39:59.641Z,12.46
2022-09-20T08:42:39.055Z,12.50
2022-09-20T08:45:22.660Z,12.53
2022-09-20T08:48:06.956Z,12.65
2022-09-20T08:50:37.497Z,12.79
2022-09-20T08:53:15.024Z,12.86
2022-09-20T08:55:43.843Z,12.88
2022-09-20T08:58:24.583Z,12.88
2022-09-20T09:00:56.433Z,12.85
2022-09-20T09:03:43.220Z,12.77
2022-09-20T09:06:18.293Z,12.72
2022-09-20T09:08:52.047Z,12.68
2022-09-20T09:11:23.851Z,12.64
2022-09-20T09:14:30.949Z,12.57
2022-09-20T09:17:02.878Z,12.55
2022-09-20T09:19:36.612Z,12.58
2022-09-20T09:22:06.273Z,12.68
2022-09-20T09:24:37.455Z,12.76
2022-09-20T09:27:24.639Z,12.79
2022-09-20T09:29:56.297Z,12.81
2022-09-20T09:32:33.115Z,12.78
2022-09-20T09:35:30.034Z,12.72
2022-09-20T09:38:01.648Z,12.66
2022-09-20T09:40:32.431Z,12.62
2022-09-20T09:43:03.122Z,12.65
2022-09-20T09:45:38.516Z,12.69
2022-09-20T09:48:29.320Z,12.71
2022-09-20T09:51:18.511Z,12.70
2022-09-20T09:53:51.706Z,12.72
2022-09-20T09:56:48.588Z,12.82
2022-09-20T09:59:51.986Z,12.97
2022-09-20T10:02:53.663Z,13.13
2022-09-20T10:05:46.786Z,13.41
2022-09-20T10:08:24.756Z,13.61
2022-09-20T10:11:21.326Z,13.71
2022-09-20T10:14:19.872Z,13.81
2022-09-20T10:17:07.114Z,13.92
2022-09-20T10:19:59.796Z,14.01
2022-09-20T10:23:06.765Z,14.14
2022-09-20T10:25:48.708Z,14.16
2022-09-20T10:28:48.510Z,14.08
2022-09-20T10:31:38.537Z,13.99
2022-09-20T10:34:28.059Z,14.04
2022-09-20T10:37:00.555Z,14.13
2022-09-20T10:39:36.334Z,14.21
2022-09-20T10:42:41.567Z,14.33
2022-09-20T10:45:50.961Z,14.49
2022-09-20T10:48:23.810Z,14.62
2022-09-20T10:51:00.298Z,14.77
2022-09-20T10:53:39.863Z,14.82
2022-09-20T10:56:31.149Z,14.79
2022-09-20T10:59:15.851Z,14.73
2022-09-20T11:02:11.822Z,14.70
2022-09-20T11:05:16.297Z,14.68
2022-09-20T11:07:57.879Z,14.67
2022-09-20T11:10:38.037Z,14.80
2022-09-20T11:13:20.766Z,14.91
2022-09-20T11:16:17.499Z,15.09
2022-09-20T11:19:06.271Z,15.18
2022-09-20T11:21:48.313Z,15.31
2022-09-20T11:24:58.201Z,15.40
2022-09-20T11:27:37.851Z,15.37
2022-09-20T11:30:15.404Z,15.21
2022-09-20T11:33:13.132Z,15.04
2022-09-20T11:36:05.007Z,14.83
2022-09-20T11:38:44.339Z,14.71
2022-09-20T11:41:31.685Z,14.71
2022-09-20T11:44:07.783Z,14.74
2022-09-20T11:47:10.351Z,14.80
2022-09-20T11:50:05.684Z,14.94
2022-09-20T11:52:45.696Z,15.07
2022-09-20T11:55:29.188Z,15.10
2022-09-20T11:58:17.120Z,15.21
2022-09-20T12:00:48.604Z,15.20
2022-09-20T12:03:39.249Z,15.04
2022-09-20T12:06:20.088Z,14.83
2022-09-20T12:08:52.618Z,14.59
2022-09-20T12:11:53.050Z,14.44
2022-09-20T12:14:28.415Z,14.34
2022-09-20T12:16:57.922Z,14.35
2022-09-20T12:19:37.093Z,14.38
2022-09-20T12:22:05.290Z,14.43
2022-09-20T12:24:45.132Z,14.42
2022-09-20T12:27:21.539Z,14.34
2022-09-20T12:30:12.759Z,14.25
2022-09-20T12:32:50.588Z,14.17
2022-09-20T12:35:59.885Z,14.10
2022-09-20T12:38:31.302Z,13.99
2022-09-20T12:41:08.690Z,14.02
2022-09-20T12:43:48.892Z,14.17
2022-09-20T12:46:52.001Z,14.31
2022-09-20T12:49:55.961Z,14.49
2022-09-20T12:52:51.351Z,14.82
2022-09-20T12:55:45.735Z,15.22
2022-09-20T12:58:23.259Z,15.29
2022-09-20T13:04:02.315Z,15.06
2022-09-20T13:06:31.474Z,14.93
2022-09-20T13:09:08.602Z,15.19
2022-09-20T13:12:05.430Z,15.55
2022-09-20T13:14:40.666Z,15.87
2022-09-20T13:17:31.068Z,15.90
2022-09-20T13:19:59.897Z,15.80
2022-09-20T13:22:37.168Z,15.74
2022-09-20T13:25:08.569Z,15.70
2022-09-20T13:27:45.834Z,15.85
2022-09-20T13:30:25.832Z,16.02
2022-09-20T13:32:55.181Z,15.97
2022-09-20T13:35:28.061Z,15.83
2022-09-20T13:38:07.901Z,15.69
2022-09-20T13:40:40.171Z,15.64
2022-09-20T13:43:27.904Z,15.62
2022-09-20T13:46:07.295Z,15.56
2022-09-20T13:48:35.341Z,15.47
2022-09-20T13:51:04.325Z,15.43
2022-09-20T13:53:47.361Z,15.39
2022-09-20T13:56:30.009Z,15.33
2022-09-20T13:59:06.535Z,15.28
2022-09-20T14:01:36.147Z,15.31
2022-09-20T14:04:14.149Z,15.35
2022-09-20T14:06:43.025Z,15.38
2022-09-20T14:09:50.646Z,15.39
2022-09-20T14:12:19.622Z,15.38
2022-09-20T14:14:53.625Z,15.40
2022-09-20T14:17:24.770Z,15.43
2022-09-20T14:20:00.536Z,15.46
2022-09-20T14:22:31.956Z,15.48
2022-09-20T14:25:20.337Z,15.48
2022-09-20T14:27:48.860Z,15.47
2022-09-20T14:30:36.668Z,15.49
2022-09-20T14:33:12.884Z,15.48
2022-09-20T14:35:53.235Z,15.52
2022-09-20T14:38:26.542Z,15.64
2022-09-20T14:40:54.808Z,15.75
2022-09-20T14:43:32.073Z,15.85
2022-09-20T14:46:03.515Z,16.02
2022-09-20T14:48:49.608Z,16.27
2022-09-20T14:51:22.399Z,16.53
2022-09-20T14:53:54.047Z,16.83
2022-09-20T14:56:58.475Z,17.16
2022-09-20T14:59:39.307Z,17.63
2022-09-20T15:02:07.307Z,18.08
2022-09-20T15:04:37.894Z,18.57
2022-09-20T15:07:11.007Z,18.94
2022-09-20T15:09:39.366Z,19.43
2022-09-20T15:12:12.381Z,19.74
2022-09-20T15:14:41.464Z,20.00
2022-09-20T15:17:19.952Z,20.25
2022-09-20T15:19:53.769Z,20.48
2022-09-20T15:22:22.123Z,20.59
2022-09-20T15:24:49.936Z,20.68
2022-09-20T15:27:17.793Z,20.69
2022-09-20T15:29:45.765Z,20.69
2022-09-20T15:32:14.627Z,20.68
2022-09-20T15:35:23.320Z,20.65
2022-09-20T15:38:34.823Z,20.58
2022-09-20T15:41:06.255Z,20.54
2022-09-20T15:43:38.095Z,20.46
2022-09-20T15:46:21.323Z,20.31
2022-09-20T15:48:49.429Z,20.16
2022-09-20T15:51:17.770Z,20.02
2022-09-20T15:54:15.207Z,19.78
2022-09-20T15:56:43.985Z,19.42
2022-09-20T15:59:13.458Z,19.06
2022-09-20T16:01:44.269Z,18.67
2022-09-20T16:04:16.095Z,18.31
2022-09-20T16:06:45.321Z,17.98
2022-09-20T16:09:32.834Z,17.66
2022-09-20T16:12:11.881Z,17.27
2022-09-20T16:14:39.817Z,16.84
2022-09-20T16:17:47.904Z,16.37
2022-09-20T16:20:16.203Z,15.82
2022-09-20T16:22:44.183Z,15.47
2022-09-20T16:25:12.206Z,15.15
2022-09-20T16:27:42.735Z,14.86
2022-09-20T16:30:11.355Z,14.61
2022-09-20T16:32:50.189Z,14.35
2022-09-20T16:35:43.844Z,14.10
2022-09-20T16:38:24.626Z,13.81
2022-09-20T16:40:58.158Z,13.58
2022-09-20T16:43:30.460Z,13.39
2022-09-20T16:46:13.725Z,13.21
2022-09-20T16:48:53.182Z,13.04
2022-09-20T16:51:29.451Z,12.92
2022-09-20T16:54:03.219Z,12.82
2022-09-20T16:56:34.185Z,12.72
2022-09-20T16:59:05.855Z,12.61
2022-09-20T17:01:37.583Z,12.52
2022-09-20T17:04:23.489Z,12.44
2022-09-20T17:06:53.803Z,12.35
2022-09-20T17:09:49.093Z,12.27
2022-09-20T17:12:25.346Z,12.16
2022-09-20T17:15:01.366Z,12.06
2022-09-20T17:17:33.677Z,11.96
2022-09-20T17:20:23.115Z,11.90
2022-09-20T17:22:59.504Z,11.82
2022-09-20T17:25:27.852Z,11.78
2022-09-20T17:27:56.469Z,11.73
2022-09-20T17:30:25.079Z,11.69
2022-09-20T17:32:55.235Z,11.66
2022-09-20T17:35:23.665Z,11.65
2022-09-20T17:37:52.076Z,11.63
2022-09-20T17:40:37.185Z,11.59
2022-09-20T17:43:15.862Z,11.56
2022-09-20T17:45:44.548Z,11.50
2022-09-20T17:48:13.459Z,11.46
2022-09-20T17:50:57.669Z,11.38
2022-09-20T17:53:28.686Z,11.32
2022-09-20T17:56:04.734Z,11.25
2022-09-20T17:58:35.678Z,11.19
2022-09-20T18:01:23.475Z,11.11
2022-09-20T18:03:56.393Z,11.04
2022-09-20T18:06:36.578Z,10.98
2022-09-20T18:09:11.298Z,10.89
2022-09-20T18:12:07.168Z,10.78
2022-09-20T18:14:49.444Z,10.69
2022-09-20T18:17:23.761Z,10.59
2022-09-20T18:19:54.610Z,10.49
2022-09-20T18:22:22.632Z,10.41
2022-09-20T18:24:50.749Z,10.36
2022-09-20T18:27:19.049Z,10.28
2022-09-20T18:29:47.192Z,10.24
2022-09-20T18:32:17.533Z,10.18
2022-09-20T18:34:51.167Z,10.11
2022-09-20T18:37:21.790Z,10.06
2022-09-20T18:40:02.263Z,10.01
2022-09-20T18:42:31.686Z,9.97
2022-09-20T18:44:59.697Z,9.90
2022-09-20T18:47:37.088Z,9.87
2022-09-20T18:50:16.387Z,9.86
2022-09-20T18:52:49.546Z,9.83
2022-09-20T18:55:17.834Z,9.79
2022-09-20T18:57:58.203Z,9.77
2022-09-20T19:00:31.970Z,9.75
2022-09-20T19:03:21.122Z,9.74
2022-09-20T19:06:00.687Z,9.71
2022-09-20T19:08:34.562Z,9.67
2022-09-20T19:11:13.446Z,9.63
2022-09-20T19:13:57.300Z,9.58
2022-09-20T19:16:43.694Z,9.53
2022-09-20T19:19:31.695Z,9.46
2022-09-20T19:22:17.879Z,9.41
2022-09-20T19:25:21.096Z,9.38
2022-09-20T19:28:09.034Z,9.34
2022-09-20T19:30:40.639Z,9.30
2022-09-20T19:33:21.990Z,9.30
2022-09-20T19:35:54.931Z,9.26
2022-09-20T19:38:56.054Z,9.22
2022-09-20T19:41:39.465Z,9.18
2022-09-20T19:44:49.358Z,9.14
2022-09-20T19:47:43.618Z,9.11
2022-09-20T19:51:01.513Z,9.09
2022-09-20T19:53:50.422Z,9.04
2022-09-20T19:56:26.569Z,9.00
2022-09-20T19:58:57.922Z,8.97
2022-09-20T20:01:32.024Z,8.95
2022-09-20T20:04:05.742Z,8.92
2022-09-20T20:07:06.091Z,8.91
2022-09-20T20:10:08.035Z,8.88
2022-09-20T20:13:03.026Z,8.85
2022-09-20T20:15:54.334Z,8.84
2022-09-20T20:18:49.037Z,8.83
2022-09-20T20:21:39.551Z,8.81
2022-09-20T20:24:28.609Z,8.79
2022-09-20T20:26:57.318Z,8.76
2022-09-20T20:29:25.898Z,8.74
2022-09-20T20:32:04.943Z,8.73
2022-09-20T20:34:36.968Z,8.71
2022-09-20T20:37:11.240Z,8.70
2022-09-20T20:40:01.018Z,8.68
2022-09-20T20:42:33.276Z,8.65
2022-09-20T20:45:21.424Z,8.63
2022-09-20T20:47:58.729Z,8.59
2022-09-20T20:50:32.476Z,8.56
2022-09-20T20:53:10.813Z,8.54
2022-09-20T20:55:47.254Z,8.50
2022-09-20T20:58:15.403Z,8.47
2022-09-20T21:00:47.281Z,8.44
2022-09-20T21:03:16.612Z,8.42
2022-09-20T21:05:58.737Z,8.39
2022-09-20T21:08:35.867Z,8.37
2022-09-20T21:11:18.776Z,8.36
2022-09-20T21:13:59.584Z,8.34
2022-09-20T21:16:39.075Z,8.32
2022-09-20T21:19:10.496Z,8.30
2022-09-20T21:21:47.923Z,8.29
2022-09-20T21:24:24.910Z,8.27
2022-09-20T21:26:55.437Z,8.24
2022-09-20T21:29:23.441Z,8.23
2022-09-20T21:31:59.158Z,8.21
2022-09-20T21:34:27.673Z,8.22
2022-09-20T21:37:01.893Z,8.22
2022-09-20T21:39:30.452Z,8.23
2022-09-20T21:42:12.958Z,8.22
2022-09-20T21:44:46.834Z,8.21
2022-09-20T21:47:42.285Z,8.19
2022-09-20T21:50:16.018Z,8.17
2022-09-20T21:52:59.907Z,8.16
2022-09-20T21:55:37.235Z,8.14
2022-09-20T21:58:16.433Z,8.10
2022-09-20T22:01:06.501Z,8.08
2022-09-20T22:03:42.363Z,8.06
2022-09-20T22:06:33.627Z,8.02
2022-09-20T22:09:20.207Z,8.01
2022-09-20T22:12:07.500Z,8.00
2022-09-20T22:15:06.709Z,7.99
2022-09-20T22:17:58.353Z,7.98
2022-09-20T22:20:44.050Z,7.97
2022-09-20T22:23:30.080Z,7.98
2022-09-20T22:26:28.899Z,7.99
2022-09-20T22:29:22.977Z,8.01
2022-09-20T22:32:37.812Z,8.02
2022-09-20T22:35:25.373Z,8.03
2022-09-20T22:38:07.994Z,8.02
2022-09-20T22:40:38.582Z,8.02
2022-09-20T22:43:15.147Z,8.01
2022-09-20T22:45:46.603Z,7.99
2022-09-20T22:48:27.390Z,7.99
2022-09-20T22:51:23.880Z,7.98
2022-09-20T22:54:15.359Z,7.98
2022-09-20T22:56:57.401Z,7.97
2022-09-20T22:59:39.959Z,7.96
2022-09-20T23:02:17.964Z,7.95
2022-09-20T23:05:08.938Z,7.94
2022-09-20T23:07:42.444Z,7.92
2022-09-20T23:10:25.626Z,7.92
2022-09-20T23:13:19.239Z,7.90
2022-09-20T23:16:23.232Z,7.87
2022-09-20T23:19:25.664Z,7.85
2022-09-20T23:22:34.418Z,7.84
2022-09-20T23:25:21.875Z,7.82
2022-09-20T23:27:54.791Z,7.80
2022-09-20T23:30:50.964Z,7.78
2022-09-20T23:33:52.770Z,7.76
2022-09-20T23:36:43.791Z,7.75
2022-09-20T23:39:18.439Z,7.74
2022-09-20T23:42:06.733Z,7.71
2022-09-20T23:45:04.165Z,7.69
2022-09-20T23:48:06.793Z,7.67
2022-09-20T23:51:00.569Z,7.65
2022-09-20T23:54:23.993Z,7.64
2022-09-20T23:57:24.999Z,7.64
